»·PEaware :: N149CD KCMA-KVNY

N149CD :: KCMA-KVNY

FLIGHT INFORMATION

Flight Status: Arrived
Operator: Privately registered:
United States
More flights under this callsign
Pilot: Nathan E. (30132)
Aircraft: CESSNA 172 SKYHAWK
(C172)
More flights by this aircraft type
Origin: KCMA Camarillo
United States
Destination: KVNY Van Nuys
United States
More flights between these airports :: More routes between these airports
Route: CMA CMA072 GINNA
File this flight plan on PilotEdge
Remarks: TEC route VTUP3
Altitude:
(Current/Filed)
5,000ft
Speed:
(Current/Filed)
110kts
Departed: 09-Sep-20 01:49 PM
Arrived: 09-Sep-20 02:27 PM
Distance/Time
Traveled:
30nm/0:37
Distance/Time
To Go:
Arrived

Flight Plot

Page will automatically refresh every two minutes.

Flight plan parsing failed; only flown route is shown


Map Options




Map Legend


Flown Route
Filed Route
Departure Airport
Arrival Airport
Navaid (VOR, NDB)
Fix

Horizontal Profiles

Position Reports

Time Latitude Longitude Heading Altitude Ground
Speed
09-Sep-20 13:33 34.210350 -119.076468 90 79ft 0kts
09-Sep-20 13:34 34.210350 -119.076468 90 79ft 0kts
09-Sep-20 13:35 34.210350 -119.076468 90 79ft 0kts
09-Sep-20 13:36 34.210350 -119.076468 90 79ft 0kts
09-Sep-20 13:37 34.210350 -119.076468 90 79ft 0kts
09-Sep-20 13:38 34.210350 -119.076468 90 79ft 0kts
09-Sep-20 13:39 34.210350 -119.076468 90 79ft 0kts
09-Sep-20 13:40 34.210350 -119.076468 90 79ft 0kts
09-Sep-20 13:41 34.210350 -119.076468 90 79ft 0kts
09-Sep-20 13:43 34.210569 -119.076452 0 79ft 8kts
09-Sep-20 13:44 34.210914 -119.081904 266 76ft 15kts
09-Sep-20 13:45 34.212622 -119.084073 334 76ft 12kts
09-Sep-20 13:46 34.212721 -119.084175 316 76ft 0kts
09-Sep-20 13:47 34.212750 -119.084283 274 76ft 2kts
09-Sep-20 13:48 34.212936 -119.084619 359 76ft 3kts
09-Sep-20 13:49 34.213861 -119.097395 270 302ft 74kts
09-Sep-20 13:50 34.216435 -119.120729 285 1182ft 68kts
09-Sep-20 13:51 34.222475 -119.142552 286 2028ft 68kts
09-Sep-20 13:52 34.228339 -119.164414 286 2828ft 68kts
09-Sep-20 13:53 34.234017 -119.186402 286 3588ft 69kts
09-Sep-20 13:54 34.247788 -119.192210 55 4304ft 88kts
09-Sep-20 13:55 34.246238 -119.161838 91 4970ft 94kts
09-Sep-20 13:56 34.243652 -119.122610 93 5002ft 122kts
09-Sep-20 13:57 34.240757 -119.081480 93 5001ft 123kts
09-Sep-20 13:57 34.238320 -119.047033 93 5000ft 122kts
09-Sep-20 13:59 34.236205 -118.999481 67 5013ft 118kts
09-Sep-20 14:00 34.249355 -118.962815 62 5037ft 119kts
09-Sep-20 14:00 34.260538 -118.932347 62 5036ft 119kts
09-Sep-20 14:02 34.279435 -118.891822 51 5037ft 117kts
09-Sep-20 14:03 34.297390 -118.858852 51 5037ft 117kts
09-Sep-20 14:03 34.312387 -118.831301 51 5037ft 117kts
09-Sep-20 14:04 34.330378 -118.798240 51 5037ft 117kts
09-Sep-20 14:05 34.348294 -118.765327 51 5038ft 116kts
09-Sep-20 14:06 34.366049 -118.732807 51 5041ft 115kts
09-Sep-20 14:07 34.383649 -118.700794 51 5045ft 113kts
09-Sep-20 14:08 34.401136 -118.669318 51 5051ft 112kts
09-Sep-20 14:09 34.418673 -118.638178 51 5054ft 111kts
09-Sep-20 14:10 34.436219 -118.607519 51 5058ft 110kts
09-Sep-20 14:11 34.453910 -118.577145 51 5061ft 110kts
09-Sep-20 14:12 34.471703 -118.547110 51 5065ft 109kts
09-Sep-20 14:13 34.489418 -118.517205 51 5072ft 108kts
09-Sep-20 14:14 34.507300 -118.488085 31 5077ft 106kts
09-Sep-20 14:15 34.516310 -118.508792 216 5079ft 117kts
09-Sep-20 14:16 34.484176 -118.515335 177 4925ft 124kts
09-Sep-20 14:17 34.449534 -118.512778 175 4426ft 124kts
09-Sep-20 14:18 34.415302 -118.509753 173 3926ft 123kts
09-Sep-20 14:19 34.383761 -118.506787 175 3835ft 105kts
09-Sep-20 14:20 34.353197 -118.503900 175 3923ft 117kts
09-Sep-20 14:21 34.319212 -118.500738 174 3216ft 122kts
09-Sep-20 14:22 34.286342 -118.497637 174 2473ft 115kts
09-Sep-20 14:23 34.255979 -118.494756 174 1793ft 97kts
09-Sep-20 14:24 34.232450 -118.492521 173 1245ft 70kts
09-Sep-20 14:25 34.213783 -118.490746 172 826ft 65kts
09-Sep-20 14:26 34.208127 -118.491061 205 806ft 4kts
09-Sep-20 14:27 34.206243 -118.492540 179 806ft 0kts

Navigation Log

Ident Type
Flight plan parsing failed, navigation log unavailable